Time;durP1;ratioP1;P1;durP2;ratioP2;P2;SDS_P1;SDS_P2;PMS_P1;PMS_P2;Temp;Humidity;BMP_temperature;BMP_pressure;BME280_temperature;BME280_humidity;BME280_pressure;Samples;Min_cycle;Max_cycle;Signal;HPM_P1;HPM_P2
2022/03/02 00:02:18;;;;;;;45.20;23.20;;;5.80;99.90;;;;;;5092566;28;20081;-74
2022/03/02 00:04:44;;;;;;;45.38;23.80;;;5.80;99.90;;;;;;5092860;28;20066;-74
2022/03/02 00:07:09;;;;;;;38.70;23.50;;;5.70;99.90;;;;;;5093140;28;20032;-74
2022/03/02 00:09:35;;;;;;;47.28;24.00;;;5.70;99.90;;;;;;5092383;28;20024;-74
2022/03/02 00:12:01;;;;;;;37.63;22.55;;;5.70;99.90;;;;;;5092754;28;20107;-74
2022/03/02 00:14:26;;;;;;;43.95;23.00;;;5.60;99.90;;;;;;5093147;28;20028;-75
2022/03/02 00:16:52;;;;;;;40.03;23.65;;;5.60;99.90;;;;;;5091123;28;20031;-75
2022/03/02 00:19:18;;;;;;;39.97;23.27;;;5.60;99.90;;;;;;5092487;28;20043;-74
2022/03/02 00:21:43;;;;;;;42.97;24.17;;;5.50;99.90;;;;;;5092313;28;20502;-74
2022/03/02 00:24:12;;;;;;;37.97;23.85;;;5.50;99.90;;;;;;5091979;28;20032;-74
2022/03/02 00:26:38;;;;;;;38.58;24.02;;;5.50;99.90;;;;;;5092433;28;20077;-74
2022/03/02 00:29:05;;;;;;;43.53;23.30;;;5.40;99.90;;;;;;5092337;28;20156;-74
2022/03/02 00:31:30;;;;;;;43.20;24.58;;;5.40;99.90;;;;;;5092260;28;20078;-74
2022/03/02 00:33:56;;;;;;;43.15;24.58;;;5.40;99.90;;;;;;5092265;28;20028;-74
2022/03/02 00:36:22;;;;;;;43.00;24.42;;;5.40;99.90;;;;;;5092594;28;20118;-74
2022/03/02 00:38:47;;;;;;;40.95;24.25;;;5.40;99.90;;;;;;5091394;28;20613;-74
2022/03/02 00:41:13;;;;;;;41.45;24.92;;;5.40;99.90;;;;;;5092617;28;20115;-74
2022/03/02 00:43:38;;;;;;;40.50;21.83;;;5.50;99.90;;;;;;5092365;28;20024;-73
2022/03/02 00:46:04;;;;;;;42.08;24.30;;;5.40;99.90;;;;;;5091944;28;20020;-75
2022/03/02 00:48:29;;;;;;;46.13;24.02;;;5.40;99.90;;;;;;5092553;28;20032;-74
2022/03/02 00:50:55;;;;;;;38.17;23.80;;;5.40;99.90;;;;;;5091948;28;20031;-73
2022/03/02 00:53:21;;;;;;;44.95;23.58;;;5.40;99.90;;;;;;5092976;28;20028;-75
2022/03/02 00:55:46;;;;;;;41.45;22.90;;;5.40;99.90;;;;;;5092398;28;20103;-75
2022/03/02 00:58:12;;;;;;;43.58;23.52;;;5.50;99.90;;;;;;5091914;28;20089;-75
2022/03/02 01:00:38;;;;;;;41.05;24.00;;;5.50;99.90;;;;;;5092515;28;20092;-73
2022/03/02 01:03:04;;;;;;;41.15;23.30;;;5.50;99.90;;;;;;5092528;28;20052;-74
2022/03/02 01:05:30;;;;;;;36.78;23.20;;;5.40;99.90;;;;;;5091808;28;20017;-73
2022/03/02 01:07:55;;;;;;;43.08;24.25;;;5.40;99.90;;;;;;5092177;28;20036;-74
2022/03/02 01:10:21;;;;;;;37.65;23.25;;;5.40;99.90;;;;;;5092611;28;20028;-73
2022/03/02 01:12:47;;;;;;;42.63;23.77;;;5.40;99.90;;;;;;5091597;28;20024;-74
2022/03/02 01:15:13;;;;;;;37.63;22.70;;;5.30;99.90;;;;;;5092372;28;20320;-73
2022/03/02 01:17:40;;;;;;;37.80;23.35;;;5.30;99.90;;;;;;5092112;28;20035;-75
2022/03/02 01:20:10;;;;;;;37.75;23.05;;;5.30;99.90;;;;;;5091722;28;20027;-74
2022/03/02 01:22:37;;;;;;;40.20;22.88;;;5.30;99.90;;;;;;5092444;28;20028;-74
2022/03/02 01:25:07;;;;;;;42.15;22.05;;;5.30;99.90;;;;;;5091943;28;20025;-74
2022/03/02 01:27:32;;;;;;;36.53;23.07;;;5.30;99.90;;;;;;5091198;28;20060;-75
2022/03/02 01:29:58;;;;;;;39.78;22.90;;;5.30;99.90;;;;;;5091933;28;20290;-75
2022/03/02 01:32:24;;;;;;;41.63;22.90;;;5.30;99.90;;;;;;5092110;28;20032;-75
2022/03/02 01:34:50;;;;;;;41.40;22.67;;;5.30;99.90;;;;;;5079377;28;20077;-74
2022/03/02 01:37:16;;;;;;;36.90;22.83;;;5.30;99.90;;;;;;5072028;28;20085;-75
2022/03/02 01:39:43;;;;;;;42.15;23.65;;;5.30;99.90;;;;;;5072220;28;20020;-74
2022/03/02 01:42:09;;;;;;;42.70;23.58;;;5.30;99.90;;;;;;5074855;28;20025;-74
2022/03/02 01:44:35;;;;;;;42.28;22.40;;;5.20;99.90;;;;;;5075484;28;20052;-75
2022/03/02 01:47:02;;;;;;;41.60;22.88;;;5.20;99.90;;;;;;5075296;28;20079;-75
2022/03/02 01:49:28;;;;;;;34.10;20.67;;;5.20;99.90;;;;;;5075253;28;20035;-74
2022/03/02 01:51:54;;;;;;;36.40;22.23;;;5.20;99.90;;;;;;5075506;28;20017;-75
2022/03/02 01:54:19;;;;;;;39.80;21.85;;;5.20;99.90;;;;;;5075086;28;20028;-75
2022/03/02 01:56:45;;;;;;;37.55;22.17;;;5.10;99.90;;;;;;5075174;28;20033;-74
2022/03/02 01:59:11;;;;;;;40.97;22.33;;;5.10;99.90;;;;;;5075569;28;20025;-74
2022/03/02 02:01:37;;;;;;;34.83;21.75;;;5.10;99.90;;;;;;5074380;28;20035;-75
2022/03/02 02:04:04;;;;;;;38.53;21.98;;;5.20;99.90;;;;;;5074984;28;20051;-75
2022/03/02 02:06:30;;;;;;;42.97;22.67;;;5.10;99.90;;;;;;5075706;28;20094;-75
2022/03/02 02:08:59;;;;;;;34.33;21.08;;;5.00;99.90;;;;;;5074262;28;20480;-75
2022/03/02 02:11:28;;;;;;;35.75;21.88;;;5.10;99.90;;;;;;5057269;28;20484;-75
2022/03/02 02:13:53;;;;;;;38.75;21.77;;;5.10;99.90;;;;;;5074736;28;20510;-73
2022/03/02 02:16:22;;;;;;;38.05;22.00;;;5.00;99.90;;;;;;5074429;28;20053;-73
2022/03/02 02:18:50;;;;;;;40.28;22.70;;;5.00;99.90;;;;;;5074854;28;20554;-74
2022/03/02 02:21:16;;;;;;;40.47;21.50;;;4.90;99.90;;;;;;5075301;28;20099;-73
2022/03/02 02:23:41;;;;;;;35.30;21.73;;;4.90;99.90;;;;;;5073837;28;20503;-74
2022/03/02 02:26:10;;;;;;;39.78;23.08;;;4.80;99.90;;;;;;5074720;28;20021;-74
2022/03/02 02:28:36;;;;;;;36.97;20.60;;;4.80;99.90;;;;;;5074726;28;20388;-74
2022/03/02 02:31:02;;;;;;;38.42;22.08;;;4.90;99.90;;;;;;5073895;28;20021;-74
2022/03/02 02:33:31;;;;;;;37.33;20.50;;;4.80;99.90;;;;;;5074829;28;20048;-74
2022/03/02 02:35:57;;;;;;;40.88;22.70;;;4.80;99.90;;;;;;5074400;28;20025;-73
2022/03/02 02:38:23;;;;;;;40.35;21.52;;;4.90;99.90;;;;;;5073762;28;20036;-75
2022/03/02 02:40:49;;;;;;;32.70;20.70;;;4.80;99.90;;;;;;5074401;28;20025;-74
2022/03/02 02:43:16;;;;;;;34.65;20.55;;;4.90;99.90;;;;;;5074495;28;20098;-74
2022/03/02 02:45:42;;;;;;;40.50;20.83;;;4.90;99.90;;;;;;5073779;28;20098;-74
2022/03/02 02:48:08;;;;;;;36.15;21.33;;;5.00;99.90;;;;;;5074573;28;20068;-74
2022/03/02 02:50:34;;;;;;;38.22;20.98;;;5.00;99.90;;;;;;5073547;28;20021;-74
2022/03/02 02:53:03;;;;;;;32.88;20.23;;;5.00;99.90;;;;;;5074202;28;20035;-75
2022/03/02 02:55:30;;;;;;;37.28;20.92;;;5.00;99.90;;;;;;5074407;28;20028;-74
2022/03/02 02:57:57;;;;;;;38.00;22.00;;;5.00;99.90;;;;;;5073288;28;20058;-74
2022/03/02 03:00:27;;;;;;;34.35;21.38;;;5.00;99.90;;;;;;5074237;28;20477;-74
2022/03/02 03:02:57;;;;;;;32.83;20.10;;;5.00;99.90;;;;;;5073656;28;20052;-74
2022/03/02 03:05:25;;;;;;;36.85;21.88;;;5.00;99.90;;;;;;5073244;28;20024;-74
2022/03/02 03:07:53;;;;;;;38.95;21.50;;;4.90;99.90;;;;;;5073706;28;20063;-74
2022/03/02 03:10:19;;;;;;;35.97;21.13;;;4.90;99.90;;;;;;5073813;28;20069;-74
2022/03/02 03:12:46;;;;;;;35.13;21.08;;;4.80;99.90;;;;;;5073233;28;20032;-74
2022/03/02 03:15:14;;;;;;;37.85;21.73;;;4.90;99.90;;;;;;5074140;28;20029;-74
2022/03/02 03:17:40;;;;;;;36.45;21.45;;;4.90;99.90;;;;;;5073698;28;20070;-74
2022/03/02 03:20:08;;;;;;;33.55;20.50;;;4.90;99.90;;;;;;5073592;28;20017;-74
2022/03/02 03:22:37;;;;;;;34.35;19.27;;;4.90;99.90;;;;;;5073457;28;20442;-73
2022/03/02 03:25:04;;;;;;;37.30;22.08;;;4.90;99.90;;;;;;5073617;28;20028;-73
2022/03/02 03:27:29;;;;;;;38.80;21.08;;;4.80;99.90;;;;;;5072638;28;20047;-73
2022/03/02 03:29:55;;;;;;;41.47;21.75;;;4.90;99.90;;;;;;5073659;28;20025;-74
2022/03/02 03:32:22;;;;;;;37.10;19.98;;;4.90;99.90;;;;;;5055968;28;20020;-75
2022/03/02 03:34:48;;;;;;;38.60;21.27;;;4.90;99.90;;;;;;5072708;28;20020;-74
2022/03/02 03:37:13;;;;;;;36.83;20.95;;;5.00;99.90;;;;;;5073800;28;20033;-74
2022/03/02 03:39:39;;;;;;;35.85;20.05;;;5.00;99.90;;;;;;5073018;28;20029;-75
2022/03/02 03:42:05;;;;;;;37.03;21.50;;;5.00;99.90;;;;;;5073031;28;20039;-74
2022/03/02 03:44:30;;;;;;;35.15;21.10;;;5.10;99.90;;;;;;5073822;28;20371;-74
2022/03/02 03:46:56;;;;;;;33.22;19.90;;;5.10;99.90;;;;;;5072550;28;20020;-74
2022/03/02 03:49:21;;;;;;;34.80;20.02;;;5.10;99.90;;;;;;5073537;28;20045;-74
2022/03/02 03:51:47;;;;;;;41.03;21.85;;;5.20;99.90;;;;;;5073071;28;20491;-74
2022/03/02 03:54:13;;;;;;;36.50;20.75;;;5.20;99.90;;;;;;5072565;28;20043;-76
2022/03/02 03:56:39;;;;;;;31.60;19.73;;;5.20;99.90;;;;;;5073183;28;20020;-74
2022/03/02 03:59:05;;;;;;;37.95;22.30;;;5.20;99.90;;;;;;5073189;28;20020;-73
2022/03/02 04:01:31;;;;;;;38.75;20.85;;;5.20;99.90;;;;;;5072608;28;20396;-74
2022/03/02 04:03:57;;;;;;;38.72;21.42;;;5.20;99.90;;;;;;5072080;28;20051;-73
2022/03/02 04:06:22;;;;;;;32.08;19.77;;;5.20;99.90;;;;;;5072933;28;20396;-73
2022/03/02 04:08:48;;;;;;;35.92;21.17;;;5.20;99.90;;;;;;5071711;28;20044;-73
2022/03/02 04:11:13;;;;;;;34.20;19.98;;;5.20;99.90;;;;;;5073036;28;20024;-73
2022/03/02 04:13:39;;;;;;;36.42;20.88;;;5.20;99.90;;;;;;5072682;28;20029;-73
2022/03/02 04:16:05;;;;;;;36.03;20.27;;;5.30;99.90;;;;;;5072020;28;20023;-73
2022/03/02 04:18:32;;;;;;;35.42;20.35;;;5.20;99.90;;;;;;5072722;28;20030;-74
2022/03/02 04:20:58;;;;;;;38.72;21.10;;;5.20;99.90;;;;;;5072340;28;20126;-74
2022/03/02 04:23:25;;;;;;;39.83;21.50;;;5.20;99.90;;;;;;5071867;28;20415;-75
2022/03/02 04:25:50;;;;;;;33.75;21.00;;;5.20;99.90;;;;;;5072584;28;20040;-75
2022/03/02 04:28:16;;;;;;;37.03;21.58;;;5.20;99.90;;;;;;5072581;28;20036;-74
2022/03/02 04:30:42;;;;;;;32.65;20.55;;;5.20;99.90;;;;;;5071902;28;20024;-73
2022/03/02 04:33:07;;;;;;;36.03;19.52;;;5.20;99.90;;;;;;5072483;28;20040;-73
2022/03/02 04:35:34;;;;;;;35.38;21.10;;;5.20;99.90;;;;;;5072190;28;20024;-73
2022/03/02 04:38:01;;;;;;;38.65;20.48;;;5.20;99.90;;;;;;5071347;28;20039;-74
2022/03/02 04:40:26;;;;;;;38.10;22.13;;;5.20;99.90;;;;;;5072376;28;20028;-74
2022/03/02 04:42:54;;;;;;;33.67;19.45;;;5.20;99.90;;;;;;5072520;28;20035;-74
2022/03/02 04:45:20;;;;;;;34.92;21.42;;;5.20;99.90;;;;;;5072273;28;20028;-74
2022/03/02 04:47:49;;;;;;;41.78;22.17;;;5.20;99.90;;;;;;5072108;28;20033;-73
2022/03/02 04:50:16;;;;;;;36.53;20.42;;;5.20;99.90;;;;;;5071531;28;20022;-73
2022/03/02 04:52:41;;;;;;;37.55;21.15;;;5.20;99.90;;;;;;5072190;28;20040;-74
2022/03/02 04:55:07;;;;;;;35.08;20.33;;;5.20;99.90;;;;;;5072248;28;20021;-74
2022/03/02 04:57:41;;;;;;;35.95;21.52;;;5.20;99.90;;;;;;5071464;28;20032;-73
2022/03/02 05:00:10;;;;;;;36.97;21.15;;;5.20;99.90;;;;;;5071973;28;20476;-74
2022/03/02 05:02:36;;;;;;;35.28;21.48;;;5.20;99.90;;;;;;5071998;28;20048;-74
2022/03/02 05:05:03;;;;;;;40.28;21.42;;;5.10;99.90;;;;;;5071024;28;20025;-73
2022/03/02 05:07:28;;;;;;;35.10;21.35;;;5.20;99.90;;;;;;5071935;28;20078;-73
2022/03/02 05:09:54;;;;;;;40.47;21.60;;;5.20;99.90;;;;;;5072222;28;20475;-74
2022/03/02 05:12:20;;;;;;;34.92;20.98;;;5.20;99.90;;;;;;5071612;28;20102;-74
2022/03/02 05:14:47;;;;;;;39.85;21.73;;;5.20;99.90;;;;;;5072125;28;20491;-74
2022/03/02 05:17:12;;;;;;;36.40;21.80;;;5.20;99.90;;;;;;5076513;28;20038;-74
2022/03/02 05:19:39;;;;;;;40.70;22.52;;;5.20;99.90;;;;;;5075272;28;20037;-73
2022/03/02 05:22:05;;;;;;;33.97;20.23;;;5.20;99.90;;;;;;5076201;28;20447;-74
2022/03/02 05:24:31;;;;;;;35.70;20.77;;;5.20;99.90;;;;;;5076391;28;20021;-73
2022/03/02 05:26:57;;;;;;;37.00;21.75;;;5.20;99.90;;;;;;5074839;28;20064;-74
2022/03/02 05:29:23;;;;;;;37.28;21.02;;;5.20;99.90;;;;;;5076115;28;20052;-74
2022/03/02 05:31:48;;;;;;;39.55;21.08;;;5.20;99.90;;;;;;5075393;28;20099;-73
2022/03/02 05:34:14;;;;;;;35.65;21.30;;;5.20;99.90;;;;;;5075074;28;20048;-73
2022/03/02 05:36:39;;;;;;;37.58;21.73;;;5.20;99.90;;;;;;5075931;28;20657;-73
2022/03/02 05:39:05;;;;;;;40.42;21.83;;;5.30;99.90;;;;;;5075651;28;20024;-73
2022/03/02 05:41:31;;;;;;;35.75;20.00;;;5.20;99.90;;;;;;5074961;28;20024;-73
2022/03/02 05:44:01;;;;;;;40.90;21.55;;;5.20;99.90;;;;;;5075474;28;20480;-73
2022/03/02 05:46:27;;;;;;;32.60;19.98;;;5.20;99.90;;;;;;5075121;28;20032;-74
2022/03/02 05:48:53;;;;;;;36.60;21.25;;;5.20;99.90;;;;;;5075646;28;20028;-74
2022/03/02 05:51:19;;;;;;;36.03;21.38;;;5.20;99.90;;;;;;5075592;28;20158;-73
2022/03/02 05:53:45;;;;;;;40.63;21.88;;;5.20;99.90;;;;;;5074597;28;20029;-74
2022/03/02 05:56:11;;;;;;;39.03;22.42;;;5.20;99.90;;;;;;5075747;28;20025;-74
2022/03/02 05:58:37;;;;;;;35.88;20.23;;;5.20;99.90;;;;;;5075370;28;20021;-74
2022/03/02 06:01:03;;;;;;;36.53;22.00;;;5.30;99.90;;;;;;5074416;28;20070;-74
2022/03/02 06:03:29;;;;;;;34.13;20.80;;;5.20;99.90;;;;;;5075436;28;20143;-74
2022/03/02 06:05:55;;;;;;;38.22;21.88;;;5.20;99.90;;;;;;5075359;28;20484;-74
2022/03/02 06:08:21;;;;;;;38.38;20.58;;;5.30;99.90;;;;;;5074360;28;20032;-73
2022/03/02 06:10:48;;;;;;;37.05;21.10;;;5.30;99.90;;;;;;5075098;28;20465;-74
2022/03/02 06:13:14;;;;;;;33.78;21.17;;;5.30;99.90;;;;;;5075077;28;20535;-74
2022/03/02 06:15:43;;;;;;;36.97;20.90;;;5.30;99.90;;;;;;5073907;28;20396;-74
2022/03/02 06:18:10;;;;;;;37.58;20.70;;;5.30;99.90;;;;;;5074912;28;20031;-74
2022/03/02 06:20:36;;;;;;;35.10;20.67;;;5.30;99.90;;;;;;5075272;28;20070;-73
2022/03/02 06:23:02;;;;;;;39.75;22.42;;;5.30;99.90;;;;;;5074161;28;20028;-73
2022/03/02 06:25:28;;;;;;;33.53;19.98;;;5.30;99.90;;;;;;5085046;28;20487;-75
2022/03/02 06:27:53;;;;;;;35.40;19.67;;;5.30;99.90;;;;;;5093161;28;20127;-75
2022/03/02 06:30:19;;;;;;;33.17;19.75;;;5.30;99.90;;;;;;5093065;28;20024;-74
2022/03/02 06:32:44;;;;;;;30.33;19.27;;;5.30;99.90;;;;;;5093080;28;20032;-75
2022/03/02 06:35:11;;;;;;;35.90;20.67;;;5.30;99.90;;;;;;5093798;28;20020;-75
2022/03/02 06:37:38;;;;;;;33.10;19.27;;;5.30;99.90;;;;;;5092945;28;20032;-75
2022/03/02 06:40:07;;;;;;;33.75;20.67;;;5.40;99.90;;;;;;5089909;28;20021;-74
2022/03/02 06:42:59;;;;;;;43.22;21.77;;;5.40;99.90;;;;;;5089883;28;20551;-75
2022/03/02 06:45:35;;;;;;;36.90;20.38;;;5.40;99.90;;;;;;5093485;28;20024;-73
2022/03/02 06:48:10;;;;;;;36.42;20.70;;;5.50;99.90;;;;;;5092820;28;20028;-73
2022/03/02 06:50:40;;;;;;;33.45;19.63;;;5.50;99.90;;;;;;5091061;28;20495;-73
2022/03/02 06:53:11;;;;;;;41.65;20.08;;;5.50;99.90;;;;;;5090455;28;20028;-74
2022/03/02 06:55:39;;;;;;;42.75;20.02;;;5.50;99.90;;;;;;5091547;28;20392;-73
2022/03/02 06:58:09;;;;;;;34.45;20.48;;;5.50;99.90;;;;;;5073735;28;20028;-74
2022/03/02 07:00:34;;;;;;;35.72;20.35;;;5.50;99.90;;;;;;5076143;28;20416;-73
2022/03/02 07:03:04;;;;;;;35.17;20.17;;;5.50;99.90;;;;;;5073019;28;20051;-73
2022/03/02 07:05:30;;;;;;;36.97;19.55;;;5.50;99.90;;;;;;5072279;28;20104;-74
2022/03/02 07:07:59;;;;;;;32.83;20.27;;;5.60;99.90;;;;;;5075368;28;20040;-73
2022/03/02 07:10:24;;;;;;;36.67;18.80;;;5.60;99.90;;;;;;5074070;28;20039;-73
2022/03/02 07:12:50;;;;;;;47.13;20.33;;;5.60;99.90;;;;;;5072946;28;20379;-73
2022/03/02 07:15:16;;;;;;;39.30;19.75;;;5.60;99.90;;;;;;5073721;28;20377;-75
2022/03/02 07:17:41;;;;;;;36.97;19.48;;;5.60;99.90;;;;;;5073274;28;20089;-72
2022/03/02 07:20:10;;;;;;;32.63;19.25;;;5.70;99.90;;;;;;5072748;28;20055;-73
2022/03/02 07:22:43;;;;;;;34.13;19.75;;;5.70;99.90;;;;;;5073615;28;20035;-72
2022/03/02 07:25:27;;;;;;;31.83;18.67;;;5.70;99.90;;;;;;5072829;28;20139;-77
2022/03/02 07:27:55;;;;;;;29.65;19.20;;;5.70;99.90;;;;;;5089668;28;20051;-79
2022/03/02 07:30:22;;;;;;;38.97;19.98;;;5.80;99.90;;;;;;5075825;28;20468;-76
2022/03/02 07:32:47;;;;;;;37.00;20.13;;;5.80;99.90;;;;;;5072590;28;20035;-76
2022/03/02 07:35:16;;;;;;;32.08;18.42;;;5.90;99.90;;;;;;5074069;28;20111;-76
2022/03/02 07:37:46;;;;;;;33.47;19.58;;;5.90;99.90;;;;;;5072979;28;20483;-77
2022/03/02 07:40:12;;;;;;;35.50;19.58;;;5.90;99.90;;;;;;5073357;28;20055;-78
2022/03/02 07:42:38;;;;;;;34.28;20.67;;;5.90;99.90;;;;;;5072917;28;20082;-78
2022/03/02 07:45:07;;;;;;;36.22;18.35;;;5.90;99.90;;;;;;5075227;28;20032;-78
2022/03/02 07:47:32;;;;;;;35.53;19.67;;;5.90;99.90;;;;;;5076156;28;20115;-75
2022/03/02 07:49:58;;;;;;;33.38;19.30;;;6.00;99.90;;;;;;5072728;28;20112;-78
2022/03/02 07:52:29;;;;;;;28.73;17.23;;;6.00;99.90;;;;;;5075865;28;20066;-77
2022/03/02 07:55:02;;;;;;;;;;;6.10;99.90;;;;;;5076796;28;20495;-78
2022/03/02 07:57:29;;;;;;;29.73;17.48;;;6.10;99.90;;;;;;5075679;28;19927;-76
2022/03/02 07:59:57;;;;;;;29.92;18.08;;;6.10;99.90;;;;;;5074166;28;20028;-77
2022/03/02 08:02:24;;;;;;;29.75;18.17;;;6.10;99.90;;;;;;5073742;28;20028;-77
2022/03/02 08:04:54;;;;;;;33.60;19.27;;;6.20;99.90;;;;;;5073987;28;20365;-76
2022/03/02 08:07:21;;;;;;;27.50;17.25;;;6.20;99.90;;;;;;5072210;28;20079;-77
2022/03/02 08:09:47;;;;;;;31.48;18.63;;;6.20;99.90;;;;;;5072571;28;20089;-77
2022/03/02 08:12:13;;;;;;;32.38;17.13;;;6.20;99.90;;;;;;5093475;28;20544;-78
2022/03/02 08:14:40;;;;;;;28.85;15.55;;;6.30;99.90;;;;;;5092455;28;20104;-81
2022/03/02 08:17:05;;;;;;;26.70;16.08;;;6.30;99.90;;;;;;5094199;28;20328;-81
2022/03/02 08:19:31;;;;;;;32.20;16.88;;;6.30;99.90;;;;;;5094920;28;20032;-83
2022/03/02 08:22:02;;;;;;;25.92;16.77;;;6.30;99.90;;;;;;5096549;28;20052;-82
2022/03/02 08:24:29;;;;;;;27.58;16.90;;;6.40;99.90;;;;;;5098261;28;20036;-83
2022/03/02 08:26:59;;;;;;;25.83;16.23;;;6.40;99.90;;;;;;5098095;28;20027;-85
2022/03/02 08:29:27;;;;;;;30.43;17.53;;;6.40;99.90;;;;;;5098439;28;20471;-86
2022/03/02 08:31:56;;;;;;;26.25;17.77;;;6.50;99.90;;;;;;5097269;28;20020;-83
2022/03/02 08:34:23;;;;;;;30.90;17.23;;;6.50;99.90;;;;;;5095275;28;20024;-79
2022/03/02 08:36:50;;;;;;;29.90;16.77;;;6.60;99.90;;;;;;5094698;28;20020;-79
2022/03/02 08:39:17;;;;;;;30.95;16.35;;;6.60;99.90;;;;;;5097506;28;20027;-82
2022/03/02 08:41:42;;;;;;;30.40;15.93;;;6.60;99.90;;;;;;5098854;28;20031;-80
2022/03/02 08:44:11;;;;;;;26.33;16.02;;;6.70;99.90;;;;;;5097218;28;20028;-80
2022/03/02 08:46:37;;;;;;;25.88;14.80;;;6.80;99.90;;;;;;5095634;28;20121;-78
2022/03/02 08:49:03;;;;;;;24.90;15.20;;;6.90;99.90;;;;;;5094925;28;20054;-77
2022/03/02 08:51:29;;;;;;;24.15;14.52;;;7.00;99.90;;;;;;5095813;28;20024;-79
2022/03/02 08:53:59;;;;;;;24.67;15.27;;;7.00;99.90;;;;;;5096040;28;20106;-81
2022/03/02 08:56:25;;;;;;;29.33;15.23;;;7.10;99.90;;;;;;5095625;28;20032;-85
2022/03/02 08:58:52;;;;;;;20.60;14.18;;;7.10;99.90;;;;;;5101334;28;20494;-84
2022/03/02 09:01:19;;;;;;;26.10;14.90;;;7.10;99.90;;;;;;5111062;28;20148;-84
2022/03/02 09:03:48;;;;;;;27.42;14.98;;;7.30;99.90;;;;;;5097991;28;20107;-83
2022/03/02 09:06:15;;;;;;;26.30;15.00;;;7.30;99.90;;;;;;5108491;28;20475;-81
2022/03/02 09:08:41;;;;;;;22.63;13.93;;;7.30;99.90;;;;;;5110759;28;20040;-84
2022/03/02 09:11:08;;;;;;;21.40;13.13;;;7.40;99.90;;;;;;5099376;28;20069;-82
2022/03/02 09:13:37;;;;;;;24.15;14.02;;;7.40;99.90;;;;;;5083769;28;20426;-81
2022/03/02 09:16:04;;;;;;;20.67;13.20;;;7.60;99.90;;;;;;5077353;28;20024;-81
2022/03/02 09:18:30;;;;;;;24.15;14.63;;;7.60;99.90;;;;;;5094969;28;20023;-81
2022/03/02 09:21:00;;;;;;;22.85;13.80;;;7.70;99.90;;;;;;5099664;28;20012;-81
2022/03/02 09:23:29;;;;;;;23.73;14.55;;;7.80;99.90;;;;;;5091255;28;20024;-80
2022/03/02 09:25:58;;;;;;;18.50;13.32;;;7.80;99.90;;;;;;5080972;28;20058;-81
2022/03/02 09:28:28;;;;;;;27.73;13.63;;;7.80;99.90;;;;;;5087843;28;20130;-80
2022/03/02 09:30:54;;;;;;;21.67;13.15;;;8.00;99.90;;;;;;5094787;28;20487;-80
2022/03/02 09:33:23;;;;;;;20.52;12.82;;;7.90;99.90;;;;;;5105010;28;20122;-80
2022/03/02 09:35:50;;;;;;;24.65;12.95;;;7.90;98.50;;;;;;5091862;28;20109;-80
2022/03/02 09:38:18;;;;;;;26.52;14.13;;;8.00;98.50;;;;;;5100994;28;20429;-80
2022/03/02 09:40:49;;;;;;;23.50;13.98;;;8.00;98.50;;;;;;5094678;28;20020;-79
2022/03/02 09:43:21;;;;;;;23.13;11.95;;;8.10;97.90;;;;;;5102900;28;20061;-78
2022/03/02 09:45:56;;;;;;;22.27;13.27;;;8.20;97.70;;;;;;5092627;28;20515;-78
2022/03/02 09:48:35;;;;;;;21.83;12.10;;;8.20;98.20;;;;;;5099775;28;20046;-79
2022/03/02 09:51:06;;;;;;;23.48;13.68;;;8.30;97.20;;;;;;5102588;28;20413;-79
2022/03/02 09:53:34;;;;;;;18.85;12.88;;;8.30;96.50;;;;;;5099187;28;20036;-79
2022/03/02 09:56:03;;;;;;;19.08;13.98;;;8.30;96.80;;;;;;5098670;28;20374;-79
2022/03/02 09:58:29;;;;;;;21.55;13.32;;;8.50;96.70;;;;;;5106217;28;20089;-78
2022/03/02 10:01:08;;;;;;;23.25;13.70;;;8.50;97.20;;;;;;5104637;28;20079;-79
2022/03/02 10:03:42;;;;;;;20.30;12.10;;;8.50;96.80;;;;;;5104041;28;20082;-78
2022/03/02 10:06:08;;;;;;;25.27;13.48;;;8.60;97.80;;;;;;5108905;28;20130;-80
2022/03/02 10:08:35;;;;;;;24.65;14.30;;;8.60;97.10;;;;;;5095764;28;20115;-79
2022/03/02 10:11:06;;;;;;;22.30;13.77;;;8.70;97.10;;;;;;5101563;28;20020;-81
2022/03/02 10:13:32;;;;;;;22.83;13.43;;;8.70;96.70;;;;;;5099220;28;20161;-80
2022/03/02 10:16:02;;;;;;;21.27;13.32;;;8.70;98.00;;;;;;5087179;28;20036;-80
2022/03/02 10:18:34;;;;;;;20.55;13.38;;;8.80;97.40;;;;;;5096459;28;20268;-80
2022/03/02 10:21:02;;;;;;;22.40;13.73;;;8.80;96.10;;;;;;5094855;28;20491;-80
2022/03/02 10:23:34;;;;;;;25.20;13.20;;;8.70;96.70;;;;;;5096452;28;20039;-80
2022/03/02 10:26:16;;;;;;;22.02;14.13;;;8.90;95.80;;;;;;5095205;28;20035;-81
2022/03/02 10:29:04;;;;;;;22.23;12.93;;;8.90;95.90;;;;;;5094416;28;20548;-80
2022/03/02 10:31:42;;;;;;;24.13;13.80;;;8.90;95.70;;;;;;5095443;28;20105;-79
2022/03/02 10:34:32;;;;;;;23.55;14.40;;;8.90;95.60;;;;;;5097545;28;20339;-84
2022/03/02 10:37:03;;;;;;;22.70;13.38;;;9.00;95.60;;;;;;5096667;28;20547;-82
2022/03/02 10:39:49;;;;;;;23.33;14.30;;;9.10;95.50;;;;;;5095577;28;20036;-79
2022/03/02 10:42:30;;;;;;;22.70;14.60;;;9.20;95.10;;;;;;5097203;28;20100;-81
2022/03/02 10:44:55;;;;;;;;;;;9.20;95.20;;;;;;5096687;28;20085;-82
2022/03/02 10:47:23;;;;;;;27.17;13.75;;;9.40;95.40;;;;;;5096152;28;19912;-81
2022/03/02 10:49:52;;;;;;;23.05;13.63;;;9.40;94.40;;;;;;5081894;28;20444;-76
2022/03/02 10:52:21;;;;;;;23.52;13.82;;;9.40;95.20;;;;;;5089590;28;20408;-76
2022/03/02 10:54:49;;;;;;;28.25;14.98;;;9.40;95.30;;;;;;5094085;28;20074;-78
2022/03/02 10:57:18;;;;;;;27.83;13.52;;;9.50;95.60;;;;;;5095600;28;20062;-83
2022/03/02 10:59:44;;;;;;;22.15;14.35;;;9.50;94.90;;;;;;5086222;28;20570;-82
2022/03/02 11:02:10;;;;;;;32.50;15.85;;;9.40;94.50;;;;;;5079588;28;20383;-80
2022/03/02 11:04:43;;;;;;;23.02;14.07;;;9.50;94.80;;;;;;5097073;28;20114;-83
2022/03/02 11:07:10;;;;;;;27.98;15.00;;;9.50;93.20;;;;;;5079307;28;20021;-83
2022/03/02 11:09:39;;;;;;;23.83;15.45;;;9.50;94.10;;;;;;5098104;28;20024;-82
2022/03/02 11:12:07;;;;;;;25.20;14.35;;;9.50;95.60;;;;;;5090586;28;20052;-82
2022/03/02 11:14:32;;;;;;;23.65;13.85;;;9.60;94.60;;;;;;5098021;28;20097;-80
2022/03/02 11:17:16;;;;;;;24.60;14.68;;;9.60;94.60;;;;;;5096596;28;20028;-80
2022/03/02 11:19:46;;;;;;;30.15;15.68;;;9.60;93.40;;;;;;5097325;28;20024;-81
2022/03/02 11:22:13;;;;;;;28.90;14.87;;;9.70;94.10;;;;;;5098134;28;20035;-82
2022/03/02 11:24:39;;;;;;;23.20;14.40;;;9.60;94.30;;;;;;5090843;28;20074;-83
2022/03/02 11:27:05;;;;;;;26.20;16.98;;;9.70;94.40;;;;;;5092853;28;20020;-85
2022/03/02 11:29:31;;;;;;;25.63;15.52;;;9.70;94.60;;;;;;5099476;28;20028;-82
2022/03/02 11:31:57;;;;;;;26.02;14.52;;;9.80;94.10;;;;;;5098154;28;20036;-83
2022/03/02 11:34:27;;;;;;;25.98;14.50;;;9.90;94.90;;;;;;5098429;28;20035;-83
2022/03/02 11:36:55;;;;;;;21.87;14.13;;;10.00;94.60;;;;;;5097981;28;20052;-82
2022/03/02 11:39:23;;;;;;;26.65;15.30;;;10.00;93.70;;;;;;5096796;28;20470;-82
2022/03/02 11:42:01;;;;;;;25.33;14.68;;;10.10;94.80;;;;;;5070168;28;20051;-82
2022/03/02 11:44:31;;;;;;;22.00;14.43;;;10.10;95.40;;;;;;5098280;28;20403;-84
2022/03/02 11:47:04;;;;;;;23.30;15.05;;;10.10;94.70;;;;;;5096091;28;20025;-82
2022/03/02 11:49:42;;;;;;;22.48;14.45;;;10.20;93.90;;;;;;5091310;28;20043;-82
2022/03/02 11:52:10;;;;;;;26.40;15.90;;;10.20;94.50;;;;;;5081753;28;20028;-79
2022/03/02 11:54:51;;;;;;;24.85;16.30;;;10.20;93.40;;;;;;5086746;28;20019;-81
2022/03/02 11:57:17;;;;;;;;;;;10.30;93.10;;;;;;5092565;28;20099;-81
2022/03/02 11:59:43;;;;;;;18.45;14.32;;;10.20;93.20;;;;;;5092687;28;19907;-81
2022/03/02 12:02:21;;;;;;;22.02;12.75;;;10.30;93.00;;;;;;5092413;28;20040;-80
2022/03/02 12:05:00;;;;;;;20.73;13.40;;;10.40;93.50;;;;;;5092468;28;20055;-79
2022/03/02 12:07:36;;;;;;;19.05;13.77;;;10.40;92.60;;;;;;5091601;28;20036;-80
2022/03/02 12:10:02;;;;;;;22.02;14.82;;;10.50;92.40;;;;;;5090586;28;20020;-82
2022/03/02 12:12:29;;;;;;;21.83;13.48;;;10.60;91.70;;;;;;5088445;28;20042;-81
2022/03/02 12:14:57;;;;;;;21.38;14.15;;;10.80;90.80;;;;;;5091895;28;20039;-81
2022/03/02 12:17:30;;;;;;;18.60;12.98;;;10.80;90.50;;;;;;5093061;28;20020;-80
2022/03/02 12:20:12;;;;;;;25.95;12.95;;;10.90;89.10;;;;;;5096073;28;20023;-80
2022/03/02 12:22:54;;;;;;;19.63;13.82;;;11.00;87.90;;;;;;5093446;28;20028;-81
2022/03/02 12:25:26;;;;;;;18.88;12.60;;;11.10;87.50;;;;;;5094604;28;20385;-81
2022/03/02 12:28:04;;;;;;;18.33;12.65;;;11.10;88.20;;;;;;5095326;28;20042;-81
2022/03/02 12:30:32;;;;;;;21.75;12.23;;;11.20;83.20;;;;;;5095898;28;20464;-82
2022/03/02 12:32:58;;;;;;;17.17;12.85;;;11.30;83.50;;;;;;5096823;28;20484;-80
2022/03/02 12:35:25;;;;;;;18.60;12.75;;;11.30;83.50;;;;;;5096480;28;20024;-79
2022/03/02 12:38:04;;;;;;;21.92;12.77;;;11.40;83.10;;;;;;5096270;28;20024;-80
2022/03/02 12:40:36;;;;;;;18.80;11.93;;;11.40;81.50;;;;;;5098093;28;20024;-81
2022/03/02 12:43:02;;;;;;;19.98;13.82;;;11.40;83.60;;;;;;5096570;28;20028;-81